createdAt,value
2022-09-26T00:01:38.241Z,100255.00
2022-09-26T00:04:13.233Z,100248.00
2022-09-26T00:06:40.060Z,100245.60
2022-09-26T00:09:06.893Z,100243.00
2022-09-26T00:11:35.146Z,100244.60
2022-09-26T00:14:12.718Z,100238.00
2022-09-26T00:16:39.647Z,100236.40
2022-09-26T00:19:07.657Z,100226.80
2022-09-26T00:21:35.470Z,100222.20
2022-09-26T00:24:04.504Z,100214.00
2022-09-26T00:26:34.749Z,100210.00
2022-09-26T00:29:07.629Z,100204.20
2022-09-26T00:31:39.935Z,100188.40
2022-09-26T00:34:07.339Z,100189.60
2022-09-26T00:36:38.414Z,100186.60
2022-09-26T00:39:12.800Z,100177.80
2022-09-26T00:41:40.041Z,100175.80
2022-09-26T00:44:34.838Z,100172.60
2022-09-26T00:47:02.772Z,100173.40
2022-09-26T00:49:37.189Z,100167.20
2022-09-26T00:52:37.728Z,100164.40
2022-09-26T00:55:08.689Z,100158.20
2022-09-26T00:57:45.656Z,100159.40
2022-09-26T01:00:15.161Z,100153.60
2022-09-26T01:02:45.374Z,100149.00
2022-09-26T01:05:16.937Z,100148.00
2022-09-26T01:07:45.316Z,100144.80
2022-09-26T01:10:13.192Z,100145.00
2022-09-26T01:12:39.925Z,100141.00
2022-09-26T01:15:09.478Z,100136.40
2022-09-26T01:17:39.838Z,100139.80
2022-09-26T01:20:29.296Z,100131.00
2022-09-26T01:23:32.603Z,100124.20
2022-09-26T01:26:26.029Z,100116.60
2022-09-26T01:29:49.588Z,100111.20
2022-09-26T01:32:51.089Z,100109.60
2022-09-26T01:35:59.600Z,100101.80
2022-09-26T01:39:13.996Z,100098.20
2022-09-26T01:42:01.613Z,100091.20
2022-09-26T01:44:37.551Z,100088.20
2022-09-26T01:47:27.707Z,100080.60
2022-09-26T01:50:07.016Z,100080.80
2022-09-26T01:52:55.573Z,100078.60
2022-09-26T01:55:48.514Z,100077.60
2022-09-26T01:58:24.365Z,100076.60
2022-09-26T02:00:54.583Z,100070.00
2022-09-26T02:03:27.887Z,100068.00
2022-09-26T02:06:06.259Z,100072.20
2022-09-26T02:08:37.731Z,100065.20
2022-09-26T02:11:13.830Z,100063.20
2022-09-26T02:14:29.271Z,100057.40
2022-09-26T02:17:05.512Z,100056.40
2022-09-26T02:19:46.363Z,100046.40
2022-09-26T02:22:13.188Z,100046.40
2022-09-26T02:24:40.316Z,100043.80
2022-09-26T02:27:07.545Z,100039.80
2022-09-26T02:29:34.745Z,100033.60
2022-09-26T02:32:12.828Z,100030.00
2022-09-26T02:34:47.972Z,100022.60
2022-09-26T02:37:21.251Z,100016.60
2022-09-26T02:39:51.151Z,100014.20
2022-09-26T02:43:17.614Z,100013.40
2022-09-26T02:46:19.351Z,100005.80
2022-09-26T02:48:58.377Z,99999.80
2022-09-26T02:51:54.354Z,99989.60
2022-09-26T02:54:34.358Z,99984.40
2022-09-26T02:57:11.281Z,99980.40
2022-09-26T03:00:04.905Z,99971.80
2022-09-26T03:03:13.927Z,99967.80
2022-09-26T03:05:44.792Z,99958.80
2022-09-26T03:08:23.279Z,99956.80
2022-09-26T03:10:52.461Z,99953.60
2022-09-26T03:13:20.609Z,99952.00
2022-09-26T03:15:54.180Z,99946.80
2022-09-26T03:18:31.245Z,99936.40
2022-09-26T03:20:58.014Z,99931.20
2022-09-26T03:23:27.382Z,99928.60
2022-09-26T03:26:16.060Z,99926.80
2022-09-26T03:28:56.229Z,99920.60
2022-09-26T03:31:25.344Z,99918.60
2022-09-26T03:33:59.057Z,99913.80
2022-09-26T03:36:26.574Z,99907.20
2022-09-26T03:38:53.279Z,99901.60
2022-09-26T03:41:43.335Z,99898.60
2022-09-26T03:44:25.532Z,99894.20
2022-09-26T03:47:29.308Z,99888.60
2022-09-26T03:49:56.263Z,99884.20
2022-09-26T03:52:25.148Z,99883.60
2022-09-26T03:54:53.386Z,99878.60
2022-09-26T03:57:20.995Z,99873.00
2022-09-26T03:59:52.237Z,99873.00
2022-09-26T04:02:20.951Z,99865.40
2022-09-26T04:04:49.849Z,99856.40
2022-09-26T04:07:16.592Z,99857.20
2022-09-26T04:09:43.316Z,99853.80
2022-09-26T04:12:11.019Z,99845.40
2022-09-26T04:14:39.518Z,99847.20
2022-09-26T04:17:06.991Z,99840.80
2022-09-26T04:19:37.751Z,99839.00
2022-09-26T04:22:05.998Z,99831.40
2022-09-26T04:24:32.978Z,99826.00
2022-09-26T04:27:00.995Z,99821.00
2022-09-26T04:29:29.295Z,99813.00
2022-09-26T04:32:19.671Z,99804.00
2022-09-26T04:35:05.861Z,99799.60
2022-09-26T04:37:36.295Z,99804.60
2022-09-26T04:40:04.777Z,99800.40
2022-09-26T04:42:37.018Z,99794.80
2022-09-26T04:45:05.931Z,99798.80
2022-09-26T04:47:32.884Z,99796.60
2022-09-26T04:50:35.210Z,99793.20
2022-09-26T04:53:06.804Z,99790.00
2022-09-26T04:55:36.741Z,99783.80
2022-09-26T04:58:03.779Z,99782.80
2022-09-26T05:00:30.720Z,99780.60
2022-09-26T05:03:02.099Z,99777.20
2022-09-26T05:05:35.179Z,99774.80
2022-09-26T05:08:02.487Z,99766.80
2022-09-26T05:10:29.243Z,99765.60
2022-09-26T05:13:01.036Z,99759.80
2022-09-26T05:15:28.772Z,99755.60
2022-09-26T05:18:00.464Z,99750.80
2022-09-26T05:20:32.262Z,99746.40
2022-09-26T05:23:02.770Z,99739.60
2022-09-26T05:25:57.999Z,99738.80
2022-09-26T05:28:27.363Z,99735.20
2022-09-26T05:30:54.497Z,99733.00
2022-09-26T05:33:22.447Z,99732.60
2022-09-26T05:35:53.427Z,99731.00
2022-09-26T05:38:21.710Z,99728.00
2022-09-26T05:40:57.112Z,99728.60
2022-09-26T05:43:30.733Z,99722.00
2022-09-26T05:46:00.380Z,99717.00
2022-09-26T05:48:33.497Z,99715.20
2022-09-26T05:51:17.198Z,99711.20
2022-09-26T05:53:46.374Z,99715.60
2022-09-26T05:56:19.110Z,99711.20
2022-09-26T05:59:09.586Z,99713.00
2022-09-26T06:01:55.685Z,99708.80
2022-09-26T06:04:34.097Z,99706.00
2022-09-26T06:07:20.842Z,99705.80
2022-09-26T06:09:47.887Z,99707.20
2022-09-26T06:12:39.435Z,99696.40
2022-09-26T06:15:09.493Z,99691.60
2022-09-26T06:17:36.512Z,99690.40
2022-09-26T06:20:05.692Z,99684.80
2022-09-26T06:22:43.949Z,99683.00
2022-09-26T06:25:11.724Z,99679.80
2022-09-26T06:27:39.103Z,99673.20
2022-09-26T06:30:10.489Z,99671.80
2022-09-26T06:32:39.351Z,99668.20
2022-09-26T06:35:25.252Z,99667.80
2022-09-26T06:38:05.816Z,99656.60
2022-09-26T06:40:33.995Z,99654.60
2022-09-26T06:43:01.259Z,99649.40
2022-09-26T06:46:10.460Z,99642.40
2022-09-26T06:48:55.674Z,99635.80
2022-09-26T06:51:41.067Z,99633.40
2022-09-26T06:54:08.321Z,99629.80
2022-09-26T06:56:35.711Z,99623.80
2022-09-26T06:59:03.860Z,99621.40
2022-09-26T07:01:35.707Z,99619.00
2022-09-26T07:04:10.418Z,99614.80
2022-09-26T07:06:43.567Z,99609.00
2022-09-26T07:09:12.653Z,99611.60
2022-09-26T07:12:16.082Z,99610.80
2022-09-26T07:14:45.757Z,99602.40
2022-09-26T07:17:41.684Z,99598.00
2022-09-26T07:20:12.802Z,99597.80
2022-09-26T07:23:09.361Z,99596.20
2022-09-26T07:25:39.876Z,99595.80
2022-09-26T07:28:10.272Z,99586.20
2022-09-26T07:30:46.566Z,99587.20
2022-09-26T07:33:35.050Z,99581.00
2022-09-26T07:36:06.878Z,99576.20
2022-09-26T07:38:33.890Z,99577.80
2022-09-26T07:41:01.337Z,99575.40
2022-09-26T07:44:12.633Z,99568.20
2022-09-26T07:46:36.648Z,99573.80
2022-09-26T07:49:23.006Z,99568.80
2022-09-26T07:51:57.547Z,99564.00
2022-09-26T07:54:35.245Z,99561.40
2022-09-26T07:57:20.807Z,99554.60
2022-09-26T08:00:09.000Z,99557.20
2022-09-26T08:02:47.178Z,99555.60
2022-09-26T08:05:21.190Z,99543.00
2022-09-26T08:07:49.813Z,99533.40
2022-09-26T08:10:35.916Z,99539.20
2022-09-26T08:13:21.546Z,99537.80
2022-09-26T08:16:06.017Z,99535.20
2022-09-26T08:18:38.089Z,99536.80
2022-09-26T08:21:07.294Z,99544.00
2022-09-26T08:23:35.450Z,99543.20
2022-09-26T08:26:25.356Z,99549.60
2022-09-26T08:28:59.980Z,99540.20
2022-09-26T08:31:30.326Z,99540.60
2022-09-26T08:33:58.300Z,99546.80
2022-09-26T08:36:25.449Z,99543.40
2022-09-26T08:39:06.831Z,99542.80
2022-09-26T08:41:59.102Z,99541.80
2022-09-26T08:46:09.933Z,99543.60
2022-09-26T08:49:23.292Z,99537.40
2022-09-26T08:51:55.762Z,99541.40
2022-09-26T08:54:32.071Z,99550.60
2022-09-26T08:57:21.653Z,99545.00
2022-09-26T08:59:50.839Z,99546.40
2022-09-26T09:02:42.522Z,99539.20
2022-09-26T09:05:30.300Z,99528.80
2022-09-26T09:08:01.431Z,99522.20
2022-09-26T09:11:08.762Z,99520.20
2022-09-26T09:14:00.316Z,99528.80
2022-09-26T09:17:52.454Z,99517.80
2022-09-26T09:21:02.073Z,99515.00
2022-09-26T09:23:53.065Z,99514.00
2022-09-26T09:30:17.623Z,99503.80
2022-09-26T09:32:59.513Z,99503.40
2022-09-26T09:36:08.917Z,99498.40
2022-09-26T09:38:47.323Z,99487.40
2022-09-26T09:41:51.013Z,99491.60
2022-09-26T09:44:33.568Z,99492.80
2022-09-26T09:47:01.675Z,99483.20
2022-09-26T09:49:28.748Z,99481.40
2022-09-26T09:52:25.917Z,99469.40
2022-09-26T09:55:25.696Z,99460.60
2022-09-26T09:58:33.043Z,99457.80
2022-09-26T10:01:12.303Z,99452.00
2022-09-26T10:03:50.295Z,99439.00
2022-09-26T10:06:45.365Z,99437.60
2022-09-26T10:09:41.163Z,99430.80
2022-09-26T10:12:33.147Z,99424.00
2022-09-26T10:15:27.473Z,99415.40
2022-09-26T10:18:25.310Z,99411.40
2022-09-26T10:21:12.317Z,99405.00
2022-09-26T10:23:47.933Z,99399.20
2022-09-26T10:26:35.207Z,99393.40
2022-09-26T10:29:21.445Z,99393.80
2022-09-26T10:31:56.783Z,99390.20
2022-09-26T10:34:38.027Z,99372.20
2022-09-26T10:37:29.686Z,99375.40
2022-09-26T10:40:44.844Z,99365.00
2022-09-26T10:43:33.049Z,99358.40
2022-09-26T10:46:19.010Z,99349.40
2022-09-26T10:48:54.323Z,99354.40
2022-09-26T10:51:50.915Z,99360.20
2022-09-26T10:54:40.404Z,99353.60
2022-09-26T10:57:18.753Z,99352.00
2022-09-26T10:59:49.020Z,99356.00
2022-09-26T11:02:25.516Z,99353.20
2022-09-26T11:05:20.068Z,99346.20
2022-09-26T11:08:19.308Z,99339.00
2022-09-26T11:11:15.264Z,99337.40
2022-09-26T11:14:04.144Z,99321.60
2022-09-26T11:16:56.286Z,99322.00
2022-09-26T11:19:54.993Z,99315.20
2022-09-26T11:22:44.836Z,99317.20
2022-09-26T11:25:47.047Z,99313.20
2022-09-26T11:28:52.082Z,99310.60
2022-09-26T11:31:44.102Z,99311.20
2022-09-26T11:34:42.014Z,99299.40
2022-09-26T11:37:32.197Z,99291.80
2022-09-26T11:40:23.974Z,99290.00
2022-09-26T11:43:34.459Z,99276.00
2022-09-26T11:46:47.547Z,99272.60
2022-09-26T11:50:12.326Z,99266.60
2022-09-26T11:53:16.014Z,99255.60
2022-09-26T11:56:02.366Z,99249.00
2022-09-26T11:59:28.006Z,99246.00
2022-09-26T12:02:35.428Z,99236.40
2022-09-26T12:05:17.076Z,99242.60
2022-09-26T12:08:11.464Z,99234.20
2022-09-26T12:10:50.377Z,99228.20
2022-09-26T12:14:12.067Z,99222.00
2022-09-26T12:16:58.796Z,99228.00
2022-09-26T12:19:40.422Z,99217.20
2022-09-26T12:22:57.850Z,99219.20
2022-09-26T12:25:56.100Z,99217.40
2022-09-26T12:29:08.229Z,99214.80
2022-09-26T12:32:21.488Z,99207.40
2022-09-26T12:35:20.252Z,99210.80
2022-09-26T12:38:32.977Z,99208.20
2022-09-26T12:41:44.365Z,99203.40
2022-09-26T12:44:57.890Z,99195.20
2022-09-26T12:47:52.364Z,99198.20
2022-09-26T12:50:31.617Z,99200.00
2022-09-26T12:53:32.817Z,99196.00
2022-09-26T12:56:18.317Z,99200.20
2022-09-26T12:59:07.393Z,99200.00
2022-09-26T13:01:44.955Z,99196.60
2022-09-26T13:04:39.777Z,99195.60
2022-09-26T13:08:00.717Z,99192.00
2022-09-26T13:11:07.927Z,99188.60
2022-09-26T13:13:40.369Z,99191.00
2022-09-26T13:16:25.753Z,99191.80
2022-09-26T13:19:11.127Z,99187.20
2022-09-26T13:21:50.178Z,99182.20
2022-09-26T13:24:43.242Z,99184.60
2022-09-26T13:27:27.085Z,99182.00
2022-09-26T13:30:17.441Z,99178.00
2022-09-26T13:33:05.935Z,99170.60
2022-09-26T13:35:43.979Z,99170.80
2022-09-26T13:38:55.941Z,99157.40
2022-09-26T13:42:16.807Z,99164.20
2022-09-26T13:45:04.171Z,99155.40
2022-09-26T13:47:52.514Z,99161.20
2022-09-26T13:50:24.139Z,99163.40
2022-09-26T13:53:08.062Z,99158.20
2022-09-26T13:55:36.955Z,99157.20
2022-09-26T13:58:21.180Z,99162.00
2022-09-26T14:00:49.479Z,99160.40
2022-09-26T14:03:17.854Z,99159.40
2022-09-26T14:05:44.827Z,99154.40
2022-09-26T14:08:39.480Z,99150.40
2022-09-26T14:11:12.104Z,99144.60
2022-09-26T14:13:38.807Z,99142.00
2022-09-26T14:16:27.946Z,99139.00
2022-09-26T14:19:09.619Z,99129.00
2022-09-26T14:21:38.206Z,99123.80
2022-09-26T14:24:20.360Z,99121.20
2022-09-26T14:27:11.466Z,99117.80
2022-09-26T14:29:46.952Z,99116.00
2022-09-26T14:32:30.514Z,99114.60
2022-09-26T14:35:03.014Z,99109.80
2022-09-26T14:37:42.133Z,99108.60
2022-09-26T14:40:51.441Z,99103.80
2022-09-26T14:43:22.414Z,99107.20
2022-09-26T14:46:05.226Z,99097.00
2022-09-26T14:48:40.062Z,99091.80
2022-09-26T14:51:16.219Z,99090.80
2022-09-26T14:54:14.527Z,99090.00
2022-09-26T14:56:50.579Z,99087.40
2022-09-26T14:59:29.625Z,99087.40
2022-09-26T15:02:14.563Z,99074.00
2022-09-26T15:04:45.917Z,99078.20
2022-09-26T15:07:25.670Z,99083.00
2022-09-26T15:09:59.852Z,99068.00
2022-09-26T15:12:44.120Z,99064.40
2022-09-26T15:15:44.094Z,99067.60
2022-09-26T15:18:26.664Z,99057.20
2022-09-26T15:21:17.462Z,99051.60
2022-09-26T15:23:54.096Z,99056.80
2022-09-26T15:26:30.770Z,99051.40
2022-09-26T15:28:59.617Z,99046.80
2022-09-26T15:31:37.400Z,99036.00
2022-09-26T15:34:17.305Z,99034.60
2022-09-26T15:36:49.203Z,99033.60
2022-09-26T15:39:43.364Z,99024.80
2022-09-26T15:42:55.090Z,99022.40
2022-09-26T15:45:50.309Z,99024.40
2022-09-26T15:48:26.373Z,99019.40
2022-09-26T15:51:17.097Z,99008.60
2022-09-26T15:53:59.238Z,99010.80
2022-09-26T15:56:43.702Z,99008.80
2022-09-26T15:59:26.428Z,99011.20
2022-09-26T16:01:54.426Z,99009.20
2022-09-26T16:04:32.816Z,99007.20
2022-09-26T16:07:05.726Z,99001.60
2022-09-26T16:09:40.483Z,99001.60
2022-09-26T16:12:16.636Z,98998.80
2022-09-26T16:14:51.004Z,99002.00
2022-09-26T16:17:35.026Z,99002.80
2022-09-26T16:20:22.749Z,98991.60
2022-09-26T16:22:51.947Z,98989.60
2022-09-26T16:25:18.982Z,98991.80
2022-09-26T16:27:49.513Z,98984.40
2022-09-26T16:30:28.241Z,98988.40
2022-09-26T16:33:32.345Z,98985.80
2022-09-26T16:36:09.672Z,98984.20
2022-09-26T16:38:37.147Z,98977.80
2022-09-26T16:41:56.341Z,98977.80
2022-09-26T16:44:27.787Z,98978.80
2022-09-26T16:47:02.593Z,98973.80
2022-09-26T16:49:47.229Z,98968.00
2022-09-26T16:52:30.307Z,98967.00
2022-09-26T16:55:01.357Z,98962.60
2022-09-26T16:57:33.765Z,98961.40
2022-09-26T17:00:34.456Z,98964.20
2022-09-26T17:03:02.580Z,98955.80
2022-09-26T17:05:30.081Z,98955.00
2022-09-26T17:07:57.098Z,98950.60
2022-09-26T17:10:26.717Z,98946.40
2022-09-26T17:12:54.009Z,98942.80
2022-09-26T17:15:29.342Z,98939.40
2022-09-26T17:17:58.399Z,98934.80
2022-09-26T17:20:25.945Z,98933.40
2022-09-26T17:22:54.686Z,98931.60
2022-09-26T17:25:25.243Z,98927.60
2022-09-26T17:27:58.177Z,98928.20
2022-09-26T17:30:25.811Z,98918.80
2022-09-26T17:32:54.521Z,98912.40
2022-09-26T17:35:27.771Z,98910.20
2022-09-26T17:37:56.095Z,98908.40
2022-09-26T17:40:32.814Z,98903.60
2022-09-26T17:43:02.163Z,98899.40
2022-09-26T17:45:40.227Z,98895.40
2022-09-26T17:48:29.180Z,98893.80
2022-09-26T17:50:57.100Z,98888.00
2022-09-26T17:53:32.783Z,98884.00
2022-09-26T17:55:59.877Z,98883.60
2022-09-26T17:58:27.118Z,98882.40
2022-09-26T18:00:53.965Z,98881.60
2022-09-26T18:03:30.099Z,98877.20
2022-09-26T18:05:57.117Z,98879.40
2022-09-26T18:08:31.103Z,98872.60
2022-09-26T18:11:04.694Z,98872.20
2022-09-26T18:13:43.239Z,98869.60
2022-09-26T18:16:11.631Z,98864.60
2022-09-26T18:18:38.624Z,98859.00
2022-09-26T18:21:10.595Z,98857.60
2022-09-26T18:24:20.110Z,98853.00
2022-09-26T18:27:08.975Z,98846.80
2022-09-26T18:29:41.760Z,98845.00
2022-09-26T18:32:50.860Z,98844.40
2022-09-26T18:35:25.843Z,98839.60
2022-09-26T18:38:00.153Z,98843.40
2022-09-26T18:40:30.681Z,98843.60
2022-09-26T18:42:58.604Z,98844.80
2022-09-26T18:45:38.443Z,98846.20
2022-09-26T18:48:12.917Z,98843.40
2022-09-26T18:50:40.358Z,98845.00
2022-09-26T18:53:15.801Z,98846.80
2022-09-26T18:56:01.182Z,98846.60
2022-09-26T18:58:29.474Z,98840.20
2022-09-26T19:01:07.232Z,98848.00
2022-09-26T19:03:39.839Z,98843.60
2022-09-26T19:06:16.124Z,98845.20
2022-09-26T19:08:53.170Z,98841.60
2022-09-26T19:11:23.161Z,98846.60
2022-09-26T19:13:58.619Z,98843.60
2022-09-26T19:16:26.179Z,98844.40
2022-09-26T19:18:53.088Z,98839.00
2022-09-26T19:21:41.922Z,98837.80
2022-09-26T19:24:22.544Z,98835.80
2022-09-26T19:27:06.049Z,98835.80
2022-09-26T19:29:39.337Z,98835.80
2022-09-26T19:32:10.741Z,98835.20
2022-09-26T19:34:38.357Z,98829.20
2022-09-26T19:37:06.033Z,98826.80
2022-09-26T19:39:33.065Z,98829.80
2022-09-26T19:41:59.971Z,98827.40
2022-09-26T19:44:26.816Z,98827.80
2022-09-26T19:46:53.705Z,98828.20
2022-09-26T19:49:29.997Z,98830.80
2022-09-26T19:51:56.869Z,98829.40
2022-09-26T19:54:24.087Z,98829.40
2022-09-26T19:56:51.047Z,98828.00
2022-09-26T19:59:17.881Z,98827.80
2022-09-26T20:01:48.557Z,98826.80
2022-09-26T20:04:19.178Z,98816.40
2022-09-26T20:06:47.158Z,98812.20
2022-09-26T20:09:18.069Z,98806.80
2022-09-26T20:11:45.356Z,98809.40
2022-09-26T20:14:25.025Z,98808.20
2022-09-26T20:17:02.363Z,98811.40
2022-09-26T20:19:39.996Z,98808.40
2022-09-26T20:22:15.037Z,98810.20
2022-09-26T20:24:43.995Z,98810.00
2022-09-26T20:27:21.657Z,98810.80
2022-09-26T20:30:08.911Z,98810.40
2022-09-26T20:32:36.879Z,98811.40
2022-09-26T20:35:05.444Z,98804.20
2022-09-26T20:37:38.747Z,98802.00
2022-09-26T20:40:24.377Z,98795.80
2022-09-26T20:42:59.431Z,98795.80
2022-09-26T20:45:34.648Z,98792.20
2022-09-26T20:48:01.990Z,98793.40
2022-09-26T20:50:34.496Z,98792.80
2022-09-26T20:53:02.057Z,98785.20
2022-09-26T20:55:32.538Z,98785.00
2022-09-26T20:57:59.859Z,98782.80
2022-09-26T21:00:26.680Z,98783.00
2022-09-26T21:02:57.395Z,98781.40
2022-09-26T21:05:29.199Z,98778.20
2022-09-26T21:07:59.710Z,98773.40
2022-09-26T21:10:30.752Z,98767.60
2022-09-26T21:12:59.494Z,98768.60
2022-09-26T21:15:31.002Z,98766.00
2022-09-26T21:17:59.695Z,98769.60
2022-09-26T21:20:30.862Z,98768.40
2022-09-26T21:23:19.904Z,98769.20
2022-09-26T21:25:47.044Z,98768.20
2022-09-26T21:28:28.556Z,98771.20
2022-09-26T21:31:03.072Z,98764.20
2022-09-26T21:33:30.112Z,98770.40
2022-09-26T21:35:58.113Z,98764.00
2022-09-26T21:38:26.816Z,98766.40
2022-09-26T21:40:58.556Z,98760.20
2022-09-26T21:43:31.891Z,98761.20
2022-09-26T21:45:58.778Z,98752.60
2022-09-26T21:48:26.222Z,98756.80
2022-09-26T21:50:58.558Z,98755.20
2022-09-26T21:53:53.757Z,98750.00
2022-09-26T21:56:28.951Z,98744.20
2022-09-26T21:58:56.852Z,98743.00
2022-09-26T22:01:24.232Z,98746.60
2022-09-26T22:03:51.223Z,98745.40
2022-09-26T22:06:17.968Z,98743.80
2022-09-26T22:08:44.759Z,98745.40
2022-09-26T22:11:12.094Z,98743.40
2022-09-26T22:13:39.201Z,98740.40
2022-09-26T22:16:13.247Z,98737.00
2022-09-26T22:18:41.754Z,98738.60
2022-09-26T22:21:11.153Z,98736.20
2022-09-26T22:23:38.954Z,98732.20
2022-09-26T22:26:07.614Z,98730.60
2022-09-26T22:28:35.345Z,98725.40
2022-09-26T22:31:05.170Z,98726.40
2022-09-26T22:33:33.783Z,98721.80
2022-09-26T22:36:01.360Z,98727.00
2022-09-26T22:38:28.217Z,98725.60
2022-09-26T22:41:01.731Z,98717.80
2022-09-26T22:43:30.027Z,98724.20
2022-09-26T22:46:05.998Z,98716.80
2022-09-26T22:48:42.560Z,98719.60
2022-09-26T22:51:10.282Z,98719.80
2022-09-26T22:53:40.112Z,98715.00
2022-09-26T22:56:11.552Z,98721.20
2022-09-26T22:58:52.076Z,98717.00
2022-09-26T23:01:27.345Z,98717.20
2022-09-26T23:03:55.142Z,98717.20
2022-09-26T23:06:23.414Z,98720.60
2022-09-26T23:08:51.123Z,98720.60
2022-09-26T23:11:19.550Z,98727.60
2022-09-26T23:13:47.498Z,98728.60
2022-09-26T23:16:17.816Z,98725.40
2022-09-26T23:18:45.361Z,98733.60
2022-09-26T23:21:23.018Z,98727.80
2022-09-26T23:23:55.027Z,98732.00
2022-09-26T23:26:26.198Z,98736.00
2022-09-26T23:28:55.910Z,98736.60
2022-09-26T23:31:25.197Z,98735.80
2022-09-26T23:33:54.004Z,98736.60
2022-09-26T23:36:21.857Z,98737.80
2022-09-26T23:38:49.931Z,98739.00
2022-09-26T23:41:17.024Z,98741.60
2022-09-26T23:43:46.279Z,98741.60
2022-09-26T23:46:13.207Z,98743.20
2022-09-26T23:48:40.626Z,98744.80
2022-09-26T23:51:09.189Z,98744.20
2022-09-26T23:53:36.261Z,98747.40
2022-09-26T23:56:12.447Z,98749.60
2022-09-26T23:58:40.551Z,98753.60
